Time;durP1;ratioP1;P1;durP2;ratioP2;P2;SDS_P1;SDS_P2;PMS_P1;PMS_P2;Temp;Humidity;BMP_temperature;BMP_pressure;BME280_temperature;BME280_humidity;BME280_pressure;Samples;Min_cycle;Max_cycle;Signal;HPM_P1;HPM_P2
2022/04/16 00:01:25;;;;;;;13.23;6.53;;;9.30;91.50;;;;;;5207123;28;20080;-75
2022/04/16 00:03:58;;;;;;;12.77;7.20;;;9.30;91.50;;;;;;5204987;28;20056;-75
2022/04/16 00:06:30;;;;;;;10.20;6.38;;;9.30;91.60;;;;;;5214042;28;20041;-76
2022/04/16 00:09:04;;;;;;;9.73;6.15;;;9.30;91.80;;;;;;5207380;28;20041;-75
2022/04/16 00:11:37;;;;;;;11.85;6.72;;;9.30;91.90;;;;;;5206844;28;20060;-74
2022/04/16 00:14:09;;;;;;;11.07;6.78;;;9.20;92.20;;;;;;5213806;28;20044;-74
2022/04/16 00:16:44;;;;;;;11.73;6.88;;;9.20;92.60;;;;;;5213715;28;21143;-75
2022/04/16 00:19:16;;;;;;;9.98;6.40;;;9.20;93.00;;;;;;5209660;28;20052;-75
2022/04/16 00:21:49;;;;;;;12.27;7.50;;;9.10;93.30;;;;;;5209530;28;20048;-75
2022/04/16 00:24:21;;;;;;;9.50;6.38;;;9.10;93.60;;;;;;5217072;28;20060;-75
2022/04/16 00:26:54;;;;;;;11.48;6.50;;;9.10;93.90;;;;;;5211605;28;20060;-75
2022/04/16 00:29:26;;;;;;;12.75;7.28;;;9.00;94.00;;;;;;5221089;28;20060;-75
2022/04/16 00:31:59;;;;;;;10.18;6.75;;;9.00;94.30;;;;;;5217865;28;20048;-75
2022/04/16 00:34:34;;;;;;;9.88;6.57;;;8.90;94.30;;;;;;5213595;28;20052;-75
2022/04/16 00:37:07;;;;;;;11.90;6.78;;;9.00;94.50;;;;;;5213420;28;20083;-75
2022/04/16 00:39:39;;;;;;;12.57;6.82;;;8.90;94.40;;;;;;5211768;28;20057;-75
2022/04/16 00:42:12;;;;;;;11.88;6.25;;;8.90;94.30;;;;;;5214670;28;20068;-75
2022/04/16 00:44:45;;;;;;;10.95;6.57;;;8.90;94.40;;;;;;5207628;28;20064;-74
2022/04/16 00:47:17;;;;;;;11.27;6.93;;;8.80;94.70;;;;;;5209436;28;20045;-75
2022/04/16 00:49:50;;;;;;;9.73;6.65;;;8.80;95.00;;;;;;5212790;28;20648;-75
2022/04/16 00:52:23;;;;;;;13.20;6.88;;;8.80;95.00;;;;;;5189603;28;20100;-75
2022/04/16 00:54:56;;;;;;;12.38;6.70;;;8.80;95.30;;;;;;5206265;28;20120;-73
2022/04/16 00:57:28;;;;;;;12.70;6.90;;;8.80;95.50;;;;;;5196608;28;20047;-74
2022/04/16 01:00:01;;;;;;;10.00;6.45;;;8.70;95.90;;;;;;5208215;28;20059;-75
2022/04/16 01:02:35;;;;;;;9.30;6.07;;;8.60;96.70;;;;;;5210562;28;20045;-75
2022/04/16 01:05:10;;;;;;;12.18;6.78;;;8.60;97.10;;;;;;5199550;28;20037;-74
2022/04/16 01:07:58;;;;;;;9.35;6.13;;;8.50;97.40;;;;;;5201801;28;20126;-77
2022/04/16 01:10:32;;;;;;;10.23;6.60;;;8.50;98.80;;;;;;5219148;28;20067;-75
2022/04/16 01:13:07;;;;;;;9.38;6.40;;;8.50;98.20;;;;;;5206877;28;20100;-74
2022/04/16 01:15:41;;;;;;;10.45;6.72;;;8.50;98.50;;;;;;5208415;28;20145;-75
2022/04/16 01:18:13;;;;;;;14.25;6.57;;;8.50;98.30;;;;;;5208869;28;20037;-75
2022/04/16 01:20:46;;;;;;;8.18;6.35;;;8.50;98.70;;;;;;5206022;28;20071;-76
2022/04/16 01:23:18;;;;;;;10.15;6.47;;;8.40;98.60;;;;;;5191997;28;20049;-76
2022/04/16 01:25:51;;;;;;;10.70;6.50;;;8.40;98.70;;;;;;5203540;28;21121;-75
2022/04/16 01:28:23;;;;;;;9.90;6.40;;;8.40;98.80;;;;;;5205721;28;20036;-75
2022/04/16 01:30:56;;;;;;;11.52;6.55;;;8.40;99.00;;;;;;5221409;28;20059;-76
2022/04/16 01:33:30;;;;;;;12.18;5.60;;;8.40;99.10;;;;;;5208832;28;20075;-75
2022/04/16 01:36:02;;;;;;;7.97;5.80;;;8.40;99.20;;;;;;5202321;28;20049;-75
2022/04/16 01:38:35;;;;;;;8.90;5.30;;;8.40;99.50;;;;;;5207565;28;20052;-75
2022/04/16 01:41:07;;;;;;;12.65;6.95;;;8.40;99.30;;;;;;5193756;28;20554;-75
2022/04/16 01:43:40;;;;;;;9.73;6.07;;;8.30;99.40;;;;;;5201817;28;20053;-75
2022/04/16 01:46:12;;;;;;;10.32;6.03;;;8.40;99.40;;;;;;5207465;28;20697;-75
2022/04/16 01:48:45;;;;;;;11.07;6.20;;;8.30;99.40;;;;;;5207584;28;20062;-75
2022/04/16 01:51:18;;;;;;;9.32;5.70;;;8.30;99.40;;;;;;5206756;28;20961;-75
2022/04/16 01:53:50;;;;;;;16.65;5.68;;;8.30;99.50;;;;;;5206189;28;20060;-75
2022/04/16 01:56:22;;;;;;;9.38;6.20;;;8.20;99.70;;;;;;5212045;28;20049;-75
2022/04/16 01:58:55;;;;;;;7.85;5.43;;;8.20;99.70;;;;;;5197718;28;20055;-77
2022/04/16 02:01:28;;;;;;;10.32;6.15;;;8.20;99.90;;;;;;5223646;28;20053;-75
2022/04/16 02:04:01;;;;;;;11.68;6.07;;;8.20;99.90;;;;;;5212548;28;20048;-75
2022/04/16 02:06:35;;;;;;;9.20;5.80;;;8.10;99.90;;;;;;5204689;28;20075;-74
2022/04/16 02:09:07;;;;;;;9.30;5.75;;;8.10;99.90;;;;;;5221974;28;20426;-75
2022/04/16 02:11:40;;;;;;;9.50;6.25;;;8.10;99.90;;;;;;5225782;28;20053;-75
2022/04/16 02:14:13;;;;;;;8.18;5.47;;;8.10;99.90;;;;;;5186488;28;20061;-75
2022/04/16 02:16:45;;;;;;;10.32;6.10;;;8.10;99.90;;;;;;5194081;28;20513;-75
2022/04/16 02:19:18;;;;;;;10.65;5.65;;;8.00;99.90;;;;;;5214332;28;20366;-74
2022/04/16 02:21:50;;;;;;;9.15;6.10;;;8.00;99.90;;;;;;5210831;28;20060;-75
2022/04/16 02:24:22;;;;;;;9.27;5.75;;;8.00;99.90;;;;;;5206115;28;20496;-75
2022/04/16 02:26:55;;;;;;;8.00;5.70;;;8.00;99.90;;;;;;5175605;28;20060;-75
2022/04/16 02:29:28;;;;;;;9.63;6.23;;;8.00;99.90;;;;;;5203620;28;21368;-75
2022/04/16 02:32:02;;;;;;;7.78;5.45;;;8.00;99.90;;;;;;5203022;28;20040;-75
2022/04/16 02:34:34;;;;;;;;;;;8.00;99.90;;;;;;5196002;28;20363;-74
2022/04/16 02:37:06;;;;;;;9.27;5.82;;;7.80;99.90;;;;;;5204689;28;21401;-74
2022/04/16 02:39:39;;;;;;;14.48;6.78;;;7.90;99.90;;;;;;5203398;28;20056;-75
2022/04/16 02:42:13;;;;;;;9.32;5.72;;;7.90;99.90;;;;;;5202919;28;20052;-74
2022/04/16 02:47:37;;;;;;;9.82;6.05;;;7.90;99.90;;;;;;5194262;28;20170;-75
2022/04/16 02:50:09;;;;;;;8.90;5.70;;;7.90;99.90;;;;;;5191587;28;20045;-75
2022/04/16 02:52:44;;;;;;;10.27;6.65;;;7.90;99.90;;;;;;5201821;28;20558;-75
2022/04/16 02:55:17;;;;;;;10.07;7.20;;;7.90;99.90;;;;;;5203873;28;20079;-75
2022/04/16 02:57:49;;;;;;;10.80;6.43;;;7.90;99.90;;;;;;5208798;28;20424;-75
2022/04/16 03:00:22;;;;;;;8.90;5.97;;;7.80;99.90;;;;;;5209692;28;20060;-75
2022/04/16 03:02:55;;;;;;;10.98;6.60;;;7.80;99.90;;;;;;5201475;28;20994;-75
2022/04/16 03:05:27;;;;;;;10.30;6.68;;;7.80;99.90;;;;;;5214946;28;20523;-75
2022/04/16 03:08:00;;;;;;;8.93;6.28;;;7.70;99.90;;;;;;5209049;28;20044;-75
2022/04/16 03:10:33;;;;;;;10.35;7.15;;;7.70;99.90;;;;;;5219438;28;20056;-75
2022/04/16 03:13:05;;;;;;;10.85;6.40;;;7.60;99.90;;;;;;5209148;28;20041;-75
2022/04/16 03:18:28;;;;;;;10.63;6.82;;;7.50;99.90;;;;;;5211753;28;20036;-75
2022/04/16 03:21:01;;;;;;;11.02;7.35;;;7.50;99.90;;;;;;5214373;28;20040;-74
2022/04/16 03:23:33;;;;;;;11.63;7.25;;;7.50;99.90;;;;;;5208813;28;21001;-75
2022/04/16 03:26:06;;;;;;;11.20;6.93;;;7.40;99.90;;;;;;5201195;28;20701;-74
2022/04/16 03:28:38;;;;;;;13.07;7.22;;;7.40;99.90;;;;;;5210277;28;20047;-75
2022/04/16 03:31:11;;;;;;;12.52;8.00;;;7.40;99.90;;;;;;5199311;28;20044;-75
2022/04/16 03:33:43;;;;;;;14.00;8.40;;;7.30;99.90;;;;;;5211157;28;20048;-75
2022/04/16 03:36:16;;;;;;;14.95;8.10;;;7.30;99.90;;;;;;5213518;28;20464;-75
2022/04/16 03:38:48;;;;;;;14.57;7.93;;;7.30;99.90;;;;;;5188524;28;20516;-74
2022/04/16 03:41:21;;;;;;;12.93;7.53;;;7.20;99.90;;;;;;5211985;28;20049;-75
2022/04/16 03:43:53;;;;;;;14.27;8.32;;;7.20;99.90;;;;;;5211848;28;20044;-74
2022/04/16 03:46:26;;;;;;;13.77;8.23;;;7.20;99.90;;;;;;5210602;28;20036;-75
2022/04/16 03:49:01;;;;;;;13.73;8.93;;;7.20;99.90;;;;;;5210770;28;20048;-74
2022/04/16 03:51:34;;;;;;;16.55;9.52;;;7.20;99.90;;;;;;5209225;28;20044;-75
2022/04/16 04:00:01;;;;;;;13.70;8.70;;;7.00;99.90;;;;;;5227647;28;20055;-73
2022/04/16 04:02:42;;;;;;;16.05;9.13;;;7.00;99.90;;;;;;5206243;28;20064;-75
2022/04/16 04:05:15;;;;;;;13.43;8.83;;;6.90;99.90;;;;;;5213851;28;20768;-74
2022/04/16 04:07:47;;;;;;;15.15;8.75;;;6.90;99.90;;;;;;5207733;28;20040;-75
2022/04/16 04:10:19;;;;;;;17.50;9.25;;;6.90;99.90;;;;;;5207075;28;20064;-75
2022/04/16 04:12:52;;;;;;;15.88;9.75;;;6.90;99.90;;;;;;5191472;28;20353;-75
2022/04/16 04:15:26;;;;;;;18.25;9.20;;;6.90;99.90;;;;;;5198097;28;20052;-75
2022/04/16 04:17:59;;;;;;;16.77;8.93;;;6.80;99.90;;;;;;5209390;28;20831;-75
2022/04/16 04:20:32;;;;;;;14.25;8.45;;;6.80;99.90;;;;;;5214698;28;20052;-75
2022/04/16 04:23:05;;;;;;;18.73;7.80;;;6.70;99.90;;;;;;5205979;28;20056;-74
2022/04/16 04:25:37;;;;;;;14.68;8.23;;;6.60;99.90;;;;;;5214064;28;20048;-74
2022/04/16 04:28:11;;;;;;;11.98;7.60;;;6.60;99.90;;;;;;5187446;28;20041;-74
2022/04/16 04:30:44;;;;;;;15.23;8.75;;;6.60;99.90;;;;;;5204225;28;20050;-75
2022/04/16 04:33:17;;;;;;;13.20;8.18;;;6.60;99.90;;;;;;5205016;28;20049;-75
2022/04/16 04:35:51;;;;;;;14.57;9.45;;;6.40;99.90;;;;;;5207151;28;20060;-75
2022/04/16 04:38:23;;;;;;;17.77;9.93;;;6.40;99.90;;;;;;5204328;28;20083;-75
2022/04/16 04:40:56;;;;;;;17.92;9.57;;;6.40;99.90;;;;;;5199408;28;20048;-74
2022/04/16 04:43:28;;;;;;;17.90;10.55;;;6.30;99.90;;;;;;5201999;28;20037;-74
2022/04/16 04:46:01;;;;;;;17.45;9.80;;;6.30;99.90;;;;;;5205086;28;20044;-74
2022/04/16 04:48:34;;;;;;;18.52;10.32;;;6.30;99.90;;;;;;5210636;28;20041;-75
2022/04/16 04:51:06;;;;;;;17.75;9.63;;;6.30;99.90;;;;;;5210750;28;20055;-74
2022/04/16 04:53:38;;;;;;;17.10;9.55;;;6.30;99.90;;;;;;5215776;28;20056;-75
2022/04/16 04:56:11;;;;;;;18.27;9.77;;;6.30;99.90;;;;;;5209230;28;20053;-74
2022/04/16 04:58:43;;;;;;;19.58;8.65;;;6.20;99.90;;;;;;5213662;28;20045;-74
2022/04/16 05:01:18;;;;;;;14.75;8.73;;;6.10;99.90;;;;;;5209868;28;20052;-75
2022/04/16 05:03:50;;;;;;;15.90;9.55;;;6.10;99.90;;;;;;5196153;28;20056;-74
2022/04/16 05:06:23;;;;;;;16.27;10.45;;;6.10;99.90;;;;;;5193166;28;20516;-75
2022/04/16 05:08:55;;;;;;;17.27;9.77;;;6.10;99.90;;;;;;5213606;28;20051;-74
2022/04/16 05:11:28;;;;;;;15.88;8.98;;;6.20;99.90;;;;;;5209348;28;20045;-74
2022/04/16 05:14:00;;;;;;;14.60;9.63;;;6.20;99.90;;;;;;5206375;28;20065;-74
2022/04/16 05:16:33;;;;;;;17.73;9.77;;;6.20;99.90;;;;;;5208561;28;20044;-75
2022/04/16 05:19:05;;;;;;;15.88;9.45;;;6.20;99.90;;;;;;5213630;28;20056;-74
2022/04/16 05:21:38;;;;;;;17.23;9.68;;;6.30;99.90;;;;;;5206097;28;20052;-74
2022/04/16 05:24:10;;;;;;;16.38;9.25;;;6.20;99.90;;;;;;5210042;28;20041;-74
2022/04/16 05:26:43;;;;;;;20.55;11.20;;;6.20;99.90;;;;;;5207442;28;20049;-74
2022/04/16 05:29:17;;;;;;;19.90;11.07;;;6.20;99.90;;;;;;5207175;28;20052;-75
2022/04/16 05:31:50;;;;;;;;;;;6.10;99.90;;;;;;5209078;28;20044;-74
2022/04/16 05:34:22;;;;;;;16.38;9.65;;;6.00;99.90;;;;;;5216482;28;19955;-75
2022/04/16 05:36:55;;;;;;;21.20;12.00;;;6.20;99.90;;;;;;5217480;28;20060;-75
2022/04/16 05:39:27;;;;;;;20.30;11.60;;;6.30;99.90;;;;;;5212475;28;20041;-75
2022/04/16 05:41:59;;;;;;;18.75;10.13;;;6.50;99.90;;;;;;5202322;28;20191;-75
2022/04/16 05:44:33;;;;;;;19.15;11.15;;;6.60;99.90;;;;;;5193657;28;20063;-74
2022/04/16 05:47:05;;;;;;;19.15;10.90;;;6.60;99.90;;;;;;5210911;28;20516;-74
2022/04/16 05:49:37;;;;;;;18.55;10.35;;;6.70;99.90;;;;;;5210638;28;20049;-74
2022/04/16 05:52:10;;;;;;;21.42;10.88;;;6.80;99.90;;;;;;5202808;28;20053;-74
2022/04/16 05:54:42;;;;;;;19.17;11.32;;;6.90;99.90;;;;;;5216921;28;20048;-74
2022/04/16 05:57:17;;;;;;;18.63;11.13;;;6.90;99.90;;;;;;5204126;28;20059;-74
2022/04/16 05:59:49;;;;;;;20.55;11.07;;;7.10;99.90;;;;;;5203966;28;20080;-74
2022/04/16 06:02:22;;;;;;;21.17;12.07;;;7.20;99.90;;;;;;5196176;28;20048;-74
2022/04/16 06:04:55;;;;;;;19.02;11.90;;;7.20;99.90;;;;;;5204958;28;20049;-74
2022/04/16 06:07:27;;;;;;;22.38;12.07;;;7.30;99.90;;;;;;5192625;28;20429;-75
2022/04/16 06:10:00;;;;;;;22.27;12.80;;;7.40;99.90;;;;;;5224531;28;20048;-74
2022/04/16 06:12:33;;;;;;;21.98;12.50;;;7.30;99.90;;;;;;5210000;28;20037;-75
2022/04/16 06:15:06;;;;;;;20.80;12.30;;;7.40;99.90;;;;;;5209572;28;20041;-75
2022/04/16 06:17:38;;;;;;;17.63;10.25;;;7.50;99.90;;;;;;5204099;28;20053;-76
2022/04/16 06:20:11;;;;;;;19.90;10.95;;;7.60;99.90;;;;;;5210471;28;20041;-75
2022/04/16 06:22:44;;;;;;;;;;;7.60;99.90;;;;;;5218225;28;20353;-75
2022/04/16 06:25:16;;;;;;;21.85;11.38;;;7.80;99.90;;;;;;5196270;28;19924;-75
2022/04/16 06:27:49;;;;;;;20.35;11.65;;;8.10;99.90;;;;;;5209645;28;20697;-75
2022/04/16 06:30:22;;;;;;;19.25;10.98;;;8.30;99.90;;;;;;5204143;28;20320;-75
2022/04/16 06:32:54;;;;;;;18.95;10.95;;;8.40;99.90;;;;;;5210186;28;20070;-75
2022/04/16 06:35:26;;;;;;;18.50;9.82;;;8.70;99.90;;;;;;5218043;28;20045;-75
2022/04/16 06:37:59;;;;;;;15.35;9.98;;;8.90;99.90;;;;;;5220002;28;20049;-73
2022/04/16 06:40:32;;;;;;;18.20;10.43;;;9.00;99.90;;;;;;5207410;28;20045;-75
2022/04/16 06:43:04;;;;;;;14.63;9.35;;;9.10;99.90;;;;;;5214626;28;20440;-75
2022/04/16 06:45:38;;;;;;;15.20;9.05;;;9.40;99.90;;;;;;5199629;28;20040;-76
2022/04/16 06:48:11;;;;;;;17.80;10.07;;;9.50;99.90;;;;;;5225050;28;20587;-75
2022/04/16 06:50:43;;;;;;;17.00;9.90;;;9.60;99.90;;;;;;5221416;28;20405;-75
2022/04/16 06:53:16;;;;;;;14.30;9.18;;;9.70;99.90;;;;;;5207316;28;20033;-75
2022/04/16 06:55:49;;;;;;;21.23;11.75;;;9.80;99.90;;;;;;5209371;28;20942;-75
2022/04/16 06:58:21;;;;;;;15.50;9.23;;;9.90;99.90;;;;;;5211597;28;20048;-75
2022/04/16 07:00:55;;;;;;;12.45;8.40;;;10.20;99.90;;;;;;5210783;28;20044;-75
2022/04/16 07:03:28;;;;;;;12.43;8.15;;;10.30;99.30;;;;;;5191980;28;20044;-74
2022/04/16 07:06:01;;;;;;;13.75;8.15;;;10.40;99.40;;;;;;5213225;28;20053;-75
2022/04/16 07:08:33;;;;;;;18.05;8.10;;;10.50;97.40;;;;;;5201782;28;20920;-75
2022/04/16 07:11:06;;;;;;;13.27;7.97;;;10.50;96.90;;;;;;5203830;28;20619;-75
2022/04/16 07:13:38;;;;;;;12.90;8.38;;;10.50;96.30;;;;;;5212113;28;20056;-74
2022/04/16 07:16:11;;;;;;;14.85;9.20;;;10.40;96.30;;;;;;5208397;28;20052;-75
2022/04/16 07:18:43;;;;;;;15.68;8.70;;;10.30;96.30;;;;;;5203705;28;20357;-76
2022/04/16 07:21:16;;;;;;;16.83;8.63;;;10.20;96.60;;;;;;5202223;28;20049;-74
2022/04/16 07:23:48;;;;;;;14.93;8.70;;;10.00;96.40;;;;;;5199373;28;20454;-75
2022/04/16 07:26:21;;;;;;;15.00;9.25;;;9.90;97.50;;;;;;5203001;28;20053;-74
2022/04/16 07:28:53;;;;;;;14.70;8.82;;;9.80;97.70;;;;;;5203363;28;20489;-74
2022/04/16 07:31:26;;;;;;;13.82;8.75;;;9.90;98.00;;;;;;5200210;28;20603;-75
2022/04/16 07:33:58;;;;;;;14.40;8.95;;;9.90;98.70;;;;;;5202866;28;20043;-74
2022/04/16 07:36:31;;;;;;;14.52;8.23;;;9.80;98.30;;;;;;5203029;28;20041;-74
2022/04/16 07:39:04;;;;;;;13.32;8.77;;;9.70;98.80;;;;;;5206296;28;20052;-74
2022/04/16 07:41:36;;;;;;;15.25;9.68;;;9.70;99.40;;;;;;5201134;28;20068;-73
2022/04/16 07:44:11;;;;;;;15.70;9.63;;;9.70;99.90;;;;;;5200785;28;20053;-74
2022/04/16 07:46:44;;;;;;;12.00;8.15;;;9.70;99.70;;;;;;5210353;28;20052;-73
2022/04/16 07:49:17;;;;;;;14.65;9.38;;;9.70;99.80;;;;;;5198009;28;20064;-74
2022/04/16 07:51:50;;;;;;;14.13;8.63;;;9.60;99.80;;;;;;5197649;28;21311;-75
2022/04/16 07:54:22;;;;;;;14.75;9.30;;;9.70;99.90;;;;;;5196591;28;20625;-75
2022/04/16 07:56:55;;;;;;;16.35;9.23;;;9.70;99.90;;;;;;5205862;28;20053;-74
2022/04/16 07:59:27;;;;;;;16.73;10.50;;;9.80;99.90;;;;;;5207036;28;20739;-74
2022/04/16 08:02:00;;;;;;;14.32;9.20;;;9.80;99.90;;;;;;5182375;28;20060;-74
2022/04/16 08:04:32;;;;;;;15.15;9.00;;;9.80;99.80;;;;;;5193059;28;20064;-74
2022/04/16 08:07:05;;;;;;;13.07;8.63;;;9.80;98.80;;;;;;5198987;28;20052;-74
2022/04/16 08:09:37;;;;;;;12.95;8.27;;;9.80;98.70;;;;;;5211600;28;20055;-73
2022/04/16 08:12:09;;;;;;;14.02;8.57;;;9.60;98.20;;;;;;5218168;28;20037;-74
2022/04/16 08:14:42;;;;;;;13.20;8.32;;;9.60;98.30;;;;;;5209198;28;20049;-74
2022/04/16 08:17:14;;;;;;;11.55;7.38;;;9.70;98.60;;;;;;5217034;28;20504;-74
2022/04/16 08:19:47;;;;;;;15.43;9.07;;;9.70;98.50;;;;;;5213282;28;21151;-74
2022/04/16 08:22:21;;;;;;;10.60;7.30;;;9.70;98.60;;;;;;5205277;28;20060;-74
2022/04/16 08:27:47;;;;;;;17.60;8.07;;;9.80;97.70;;;;;;5205773;28;20060;-74
2022/04/16 08:30:19;;;;;;;13.65;8.52;;;9.70;97.80;;;;;;5213092;28;20060;-75
2022/04/16 08:32:52;;;;;;;13.35;8.32;;;9.60;97.90;;;;;;5203929;28;20045;-75
2022/04/16 08:35:25;;;;;;;13.07;7.93;;;9.50;98.50;;;;;;5214204;28;20049;-74
2022/04/16 08:37:57;;;;;;;13.82;9.07;;;9.50;98.40;;;;;;5207104;28;20060;-74
2022/04/16 08:40:30;;;;;;;14.98;9.43;;;9.50;99.10;;;;;;5208382;28;20056;-75
2022/04/16 08:43:05;;;;;;;13.05;8.93;;;9.50;99.10;;;;;;5201036;28;20535;-74
2022/04/16 08:45:38;;;;;;;15.60;9.43;;;9.50;99.80;;;;;;5213086;28;20052;-74
2022/04/16 08:48:14;;;;;;;15.02;9.30;;;9.50;99.20;;;;;;5201227;28;20044;-74
2022/04/16 08:50:48;;;;;;;12.38;8.57;;;9.50;99.60;;;;;;5213318;28;20052;-74
2022/04/16 08:53:20;;;;;;;15.32;8.68;;;9.60;99.90;;;;;;5220626;28;20049;-75
2022/04/16 08:55:53;;;;;;;13.90;9.73;;;9.60;99.90;;;;;;5217403;28;20058;-74
2022/04/16 08:58:25;;;;;;;14.45;9.27;;;9.60;99.90;;;;;;5219138;28;20048;-75
2022/04/16 09:00:59;;;;;;;15.35;8.90;;;9.70;99.90;;;;;;5207958;28;20048;-75
2022/04/16 09:03:36;;;;;;;15.90;9.95;;;9.80;99.90;;;;;;5206671;28;20900;-75
2022/04/16 09:06:09;;;;;;;13.90;8.70;;;9.80;99.90;;;;;;5219648;28;20057;-74
2022/04/16 09:08:42;;;;;;;14.17;9.00;;;9.90;99.30;;;;;;5209480;28;21433;-75
2022/04/16 09:11:19;;;;;;;12.60;9.40;;;9.90;99.10;;;;;;5216239;28;20287;-75
2022/04/16 09:13:53;;;;;;;16.13;9.73;;;9.90;98.90;;;;;;5205909;28;20040;-75
2022/04/16 09:16:26;;;;;;;13.85;8.60;;;10.00;99.40;;;;;;5199478;28;20049;-74
2022/04/16 09:18:59;;;;;;;12.90;8.90;;;10.10;98.90;;;;;;5202687;28;20439;-73
2022/04/16 09:21:32;;;;;;;13.32;8.98;;;10.00;98.60;;;;;;5210762;28;20041;-73
2022/04/16 09:24:05;;;;;;;15.55;9.90;;;10.00;98.90;;;;;;5210506;28;20055;-74
2022/04/16 09:26:39;;;;;;;14.10;9.10;;;9.90;99.90;;;;;;5194803;28;20049;-74
2022/04/16 09:29:14;;;;;;;15.52;9.45;;;10.00;99.90;;;;;;5213610;28;20047;-73
2022/04/16 09:31:49;;;;;;;15.70;9.60;;;10.10;99.90;;;;;;5218912;28;20045;-74
2022/04/16 09:34:26;;;;;;;13.52;8.77;;;10.10;99.90;;;;;;5196711;28;20052;-74
2022/04/16 09:37:12;;;;;;;15.05;9.05;;;10.10;99.90;;;;;;5198078;28;20044;-74
2022/04/16 09:39:44;;;;;;;13.70;9.70;;;10.20;99.90;;;;;;5210532;28;20041;-75
2022/04/16 09:42:27;;;;;;;13.17;9.20;;;10.30;99.90;;;;;;5206647;28;20488;-74
2022/04/16 09:45:02;;;;;;;12.50;9.20;;;10.50;99.90;;;;;;5215331;28;20443;-75
2022/04/16 09:47:34;;;;;;;11.27;8.23;;;10.60;99.70;;;;;;5211432;28;20400;-73
2022/04/16 09:50:08;;;;;;;12.27;8.70;;;10.70;98.80;;;;;;5212577;28;20052;-75
2022/04/16 09:52:43;;;;;;;12.38;8.40;;;10.70;97.80;;;;;;5218980;28;20055;-75
2022/04/16 09:55:16;;;;;;;11.55;7.93;;;10.80;97.10;;;;;;5207843;28;20045;-75
2022/04/16 09:57:56;;;;;;;11.48;7.97;;;10.90;96.70;;;;;;5214216;28;20051;-75
2022/04/16 10:00:32;;;;;;;16.77;8.68;;;11.00;94.40;;;;;;5215166;28;20056;-75
2022/04/16 10:03:06;;;;;;;12.75;8.23;;;10.90;93.30;;;;;;5196629;28;20053;-75
2022/04/16 10:05:42;;;;;;;12.35;8.63;;;10.70;94.10;;;;;;5224789;28;20575;-75
2022/04/16 10:08:15;;;;;;;12.32;8.73;;;10.60;95.10;;;;;;5219646;28;20048;-74
2022/04/16 10:10:54;;;;;;;13.40;9.50;;;10.50;95.00;;;;;;5214359;28;20709;-74
2022/04/16 10:13:32;;;;;;;13.20;9.43;;;10.40;96.90;;;;;;5213495;28;20055;-74
2022/04/16 10:16:13;;;;;;;10.32;7.43;;;10.40;99.30;;;;;;5217349;28;20147;-74
2022/04/16 10:18:46;;;;;;;11.70;7.97;;;10.30;99.80;;;;;;5225443;28;20044;-75
2022/04/16 10:21:20;;;;;;;10.43;8.05;;;10.30;99.80;;;;;;5216721;28;20048;-74
2022/04/16 10:23:59;;;;;;;;;;;10.20;99.90;;;;;;5219229;28;20048;-74
2022/04/16 10:26:39;;;;;;;12.10;7.40;;;10.10;99.90;;;;;;5220838;28;19951;-74
2022/04/16 10:29:21;;;;;;;9.50;6.95;;;10.10;99.80;;;;;;5212881;28;20045;-74
2022/04/16 10:31:55;;;;;;;11.00;7.78;;;9.90;99.50;;;;;;5218010;28;20106;-74
2022/04/16 10:34:30;;;;;;;11.23;8.13;;;10.00;99.10;;;;;;5205802;28;20040;-74
2022/04/16 10:37:06;;;;;;;11.05;7.60;;;10.00;99.90;;;;;;5201874;28;20992;-74
2022/04/16 10:39:43;;;;;;;10.50;7.78;;;10.00;99.70;;;;;;5210961;28;20063;-74
2022/04/16 10:42:16;;;;;;;11.45;7.63;;;10.20;99.30;;;;;;5214924;28;20063;-74
2022/04/16 10:45:09;;;;;;;11.98;7.72;;;10.30;98.30;;;;;;5212337;28;20975;-74
2022/04/16 10:47:42;;;;;;;10.23;6.95;;;10.30;96.80;;;;;;5206499;28;20049;-73
2022/04/16 10:50:17;;;;;;;11.00;7.93;;;10.40;95.70;;;;;;5223236;28;20049;-74
2022/04/16 10:52:55;;;;;;;11.60;7.50;;;10.40;94.90;;;;;;5215814;28;20048;-75
2022/04/16 10:55:32;;;;;;;11.55;8.25;;;10.50;95.20;;;;;;5220777;28;20048;-75
2022/04/16 10:58:06;;;;;;;11.57;7.97;;;10.50;95.20;;;;;;5202184;28;20043;-75
2022/04/16 11:00:44;;;;;;;10.60;8.05;;;10.50;95.70;;;;;;5210240;28;21035;-74
2022/04/16 11:03:30;;;;;;;10.70;8.15;;;10.30;95.60;;;;;;5212945;28;20052;-75
2022/04/16 11:06:09;;;;;;;11.98;7.90;;;10.20;95.60;;;;;;5216548;28;20040;-75
2022/04/16 11:08:45;;;;;;;13.82;8.55;;;10.10;97.20;;;;;;5213166;28;21410;-75
2022/04/16 11:11:17;;;;;;;12.10;8.07;;;10.10;98.10;;;;;;5212518;28;20045;-74
2022/04/16 11:13:51;;;;;;;12.77;8.88;;;10.00;98.10;;;;;;5202834;28;20060;-74
2022/04/16 11:16:23;;;;;;;12.38;8.45;;;9.80;98.40;;;;;;5204258;28;20053;-74
2022/04/16 11:18:56;;;;;;;13.98;8.52;;;9.70;99.00;;;;;;5199108;28;20620;-75
2022/04/16 11:21:29;;;;;;;10.95;7.65;;;9.70;99.30;;;;;;5201888;28;20417;-75
2022/04/16 11:24:05;;;;;;;11.40;8.43;;;9.70;99.80;;;;;;5202600;28;20528;-75
2022/04/16 11:35:11;;;;;;;11.88;7.40;;;10.00;97.20;;;;;;5203761;28;20052;-75
2022/04/16 11:37:53;;;;;;;10.50;8.02;;;10.00;97.00;;;;;;5212490;28;20508;-75
2022/04/16 11:40:25;;;;;;;12.10;7.63;;;9.80;97.40;;;;;;5211251;28;20045;-75
2022/04/16 11:42:58;;;;;;;10.95;7.13;;;10.00;97.10;;;;;;5213113;28;20044;-75
2022/04/16 11:45:32;;;;;;;9.65;7.30;;;10.10;96.60;;;;;;5214414;28;20040;-75
2022/04/16 11:48:04;;;;;;;;;;;10.20;95.60;;;;;;5214544;28;20056;-75
2022/04/16 11:50:37;;;;;;;11.15;7.35;;;10.20;94.70;;;;;;5216064;28;22690;-75
2022/04/16 11:53:13;;;;;;;9.07;7.05;;;10.20;94.40;;;;;;5216756;28;20040;-75
2022/04/16 11:55:51;;;;;;;10.68;8.05;;;10.10;94.30;;;;;;5203084;28;20041;-75
2022/04/16 11:58:27;;;;;;;11.15;7.72;;;10.00;95.10;;;;;;5210283;28;20729;-74
2022/04/16 12:01:03;;;;;;;12.00;8.40;;;10.00;94.60;;;;;;5219691;28;20535;-74
2022/04/16 12:03:39;;;;;;;13.77;9.38;;;10.00;95.10;;;;;;5205764;28;20044;-75
2022/04/16 12:06:14;;;;;;;12.52;8.60;;;9.80;95.60;;;;;;5215917;28;20045;-75
2022/04/16 12:08:47;;;;;;;18.08;11.25;;;9.80;96.90;;;;;;5199679;28;20037;-74
2022/04/16 12:11:20;;;;;;;18.73;11.35;;;9.70;97.70;;;;;;5202259;28;20045;-75
2022/04/16 12:13:58;;;;;;;19.08;11.82;;;9.60;98.20;;;;;;5192219;28;20052;-74
2022/04/16 12:16:37;;;;;;;19.33;12.65;;;9.50;98.90;;;;;;5197417;28;20040;-74
2022/04/16 12:19:12;;;;;;;21.27;13.15;;;9.50;99.90;;;;;;5209663;28;20503;-74
2022/04/16 12:21:44;;;;;;;26.25;14.43;;;9.50;99.70;;;;;;5218011;28;20056;-73
2022/04/16 12:24:28;;;;;;;22.25;14.07;;;9.50;99.70;;;;;;5215290;28;20091;-74
2022/04/16 12:27:01;;;;;;;24.25;14.10;;;9.50;99.90;;;;;;5193305;28;21392;-74
2022/04/16 12:29:33;;;;;;;24.27;14.52;;;9.50;99.90;;;;;;5199857;28;20060;-74
2022/04/16 12:32:06;;;;;;;24.55;14.63;;;9.50;99.60;;;;;;5213668;28;20075;-74
2022/04/16 12:34:40;;;;;;;24.27;13.85;;;9.60;99.00;;;;;;5198612;28;20076;-74
2022/04/16 12:37:12;;;;;;;;;;;9.70;98.20;;;;;;5190207;28;20045;-74
2022/04/16 12:39:45;;;;;;;25.70;13.52;;;9.90;97.40;;;;;;5196621;28;19925;-74
2022/04/16 12:42:17;;;;;;;19.30;11.95;;;10.00;96.80;;;;;;5199364;28;20079;-74
2022/04/16 12:44:49;;;;;;;21.75;13.32;;;10.20;95.90;;;;;;5198402;28;20049;-74
2022/04/16 12:47:22;;;;;;;20.70;13.18;;;10.50;94.60;;;;;;5207017;28;22108;-74
2022/04/16 12:49:54;;;;;;;20.88;13.55;;;10.80;94.10;;;;;;5191813;28;20060;-74
2022/04/16 12:52:27;;;;;;;25.10;13.27;;;11.40;92.60;;;;;;5193306;28;20049;-74
2022/04/16 12:55:00;;;;;;;22.88;14.32;;;11.70;91.00;;;;;;5203274;28;21139;-73
2022/04/16 12:57:33;;;;;;;17.98;11.68;;;11.70;90.10;;;;;;5202331;28;20500;-74
2022/04/16 13:00:09;;;;;;;15.88;10.48;;;11.60;89.70;;;;;;5197033;28;20056;-73
2022/04/16 13:02:44;;;;;;;18.40;10.95;;;11.70;90.00;;;;;;5194291;28;20552;-74
2022/04/16 13:05:17;;;;;;;18.05;12.27;;;12.10;88.00;;;;;;5192773;28;20200;-75
2022/04/16 13:07:50;;;;;;;18.55;11.82;;;12.30;86.40;;;;;;5201113;28;20044;-75
2022/04/16 13:10:23;;;;;;;15.40;11.32;;;12.70;87.00;;;;;;5193310;28;20044;-75
2022/04/16 13:12:55;;;;;;;17.40;11.52;;;13.10;82.50;;;;;;5193701;28;20048;-75
2022/04/16 13:15:28;;;;;;;17.95;11.88;;;12.90;80.80;;;;;;5214325;28;20136;-73
2022/04/16 13:18:00;;;;;;;17.17;11.68;;;12.80;81.60;;;;;;5208434;28;20064;-73
2022/04/16 13:20:33;;;;;;;16.10;11.27;;;13.20;80.60;;;;;;5202480;28;20053;-73
2022/04/16 13:23:06;;;;;;;15.40;10.60;;;13.70;80.00;;;;;;5194627;28;20053;-74
2022/04/16 13:25:38;;;;;;;14.38;9.77;;;13.80;78.00;;;;;;5193440;28;20052;-75
2022/04/16 13:28:11;;;;;;;17.02;10.82;;;13.70;78.10;;;;;;5197142;28;20044;-75
2022/04/16 13:30:43;;;;;;;15.05;9.82;;;13.40;76.60;;;;;;5204939;28;20049;-75
2022/04/16 13:33:15;;;;;;;12.65;8.98;;;13.10;77.20;;;;;;5208602;28;20485;-74
2022/04/16 13:35:49;;;;;;;13.02;9.18;;;13.00;77.50;;;;;;5202462;28;20059;-74
2022/04/16 13:38:21;;;;;;;17.37;10.43;;;13.10;77.50;;;;;;5211004;28;20416;-74
2022/04/16 13:43:45;;;;;;;12.60;8.30;;;13.80;76.80;;;;;;5204330;28;20064;-73